sensor_id;sensor_type;location;lat;lon;timestamp;pressure;altitude;pressure_sealevel;temperature;humidity
23473;BME280;11909;52.516;13.564;2023-04-24T00:00:15;99721.19;;;11.94;90.47
23473;BME280;11909;52.516;13.564;2023-04-24T00:02:45;99720.53;;;11.97;90.41
23473;BME280;11909;52.516;13.564;2023-04-24T00:05:14;99720.75;;;12.00;89.74
23473;BME280;11909;52.516;13.564;2023-04-24T00:07:44;99711.50;;;11.96;90.17
23473;BME280;11909;52.516;13.564;2023-04-24T00:10:12;99699.03;;;11.90;90.98
23473;BME280;11909;52.516;13.564;2023-04-24T00:12:40;99701.28;;;11.88;90.90
23473;BME280;11909;52.516;13.564;2023-04-24T00:15:09;99701.78;;;11.90;90.64
23473;BME280;11909;52.516;13.564;2023-04-24T00:17:38;99696.59;;;11.88;90.84
23473;BME280;11909;52.516;13.564;2023-04-24T00:20:07;99691.38;;;11.87;90.69
23473;BME280;11909;52.516;13.564;2023-04-24T00:22:37;99694.28;;;11.82;91.30
23473;BME280;11909;52.516;13.564;2023-04-24T00:25:05;99685.88;;;11.78;91.47
23473;BME280;11909;52.516;13.564;2023-04-24T00:27:33;99679.34;;;11.74;91.85
23473;BME280;11909;52.516;13.564;2023-04-24T00:30:04;99679.97;;;11.71;92.02
23473;BME280;11909;52.516;13.564;2023-04-24T00:32:32;99672.69;;;11.66;92.41
23473;BME280;11909;52.516;13.564;2023-04-24T00:35:02;99672.50;;;11.62;92.43
23473;BME280;11909;52.516;13.564;2023-04-24T00:37:29;99658.72;;;11.54;93.04
23473;BME280;11909;52.516;13.564;2023-04-24T00:39:58;99651.41;;;11.49;93.41
23473;BME280;11909;52.516;13.564;2023-04-24T00:42:25;99659.97;;;11.47;93.75
23473;BME280;11909;52.516;13.564;2023-04-24T00:44:54;99652.16;;;11.41;94.49
23473;BME280;11909;52.516;13.564;2023-04-24T00:47:21;99649.91;;;11.43;94.72
23473;BME280;11909;52.516;13.564;2023-04-24T00:49:49;99645.03;;;11.40;94.81
23473;BME280;11909;52.516;13.564;2023-04-24T00:52:18;99647.78;;;11.40;94.78
23473;BME280;11909;52.516;13.564;2023-04-24T00:54:47;99643.72;;;11.37;94.77
23473;BME280;11909;52.516;13.564;2023-04-24T00:57:14;99639.34;;;11.36;94.96
23473;BME280;11909;52.516;13.564;2023-04-24T00:59:42;99634.06;;;11.40;95.19
23473;BME280;11909;52.516;13.564;2023-04-24T01:02:11;99633.22;;;11.39;95.55
23473;BME280;11909;52.516;13.564;2023-04-24T01:04:40;99628.69;;;11.35;95.84
23473;BME280;11909;52.516;13.564;2023-04-24T01:07:08;99633.06;;;11.36;95.60
23473;BME280;11909;52.516;13.564;2023-04-24T01:09:40;99626.94;;;11.39;95.50
23473;BME280;11909;52.516;13.564;2023-04-24T01:12:09;99622.38;;;11.34;95.84
23473;BME280;11909;52.516;13.564;2023-04-24T01:14:37;99621.25;;;11.35;95.99
23473;BME280;11909;52.516;13.564;2023-04-24T01:17:05;99622.88;;;11.36;95.81
23473;BME280;11909;52.516;13.564;2023-04-24T01:19:35;99632.25;;;11.35;96.05
23473;BME280;11909;52.516;13.564;2023-04-24T01:22:08;99637.94;;;11.39;95.86
23473;BME280;11909;52.516;13.564;2023-04-24T01:24:39;99632.56;;;11.33;96.02
23473;BME280;11909;52.516;13.564;2023-04-24T01:27:07;99628.50;;;11.31;96.09
23473;BME280;11909;52.516;13.564;2023-04-24T01:29:36;99626.53;;;11.23;96.74
23473;BME280;11909;52.516;13.564;2023-04-24T01:32:05;99628.56;;;11.17;97.54
23473;BME280;11909;52.516;13.564;2023-04-24T01:34:34;99628.56;;;11.17;97.98
23473;BME280;11909;52.516;13.564;2023-04-24T01:37:01;99619.84;;;11.15;98.24
23473;BME280;11909;52.516;13.564;2023-04-24T01:39:30;99610.59;;;11.11;98.85
23473;BME280;11909;52.516;13.564;2023-04-24T01:42:00;99620.75;;;11.10;99.70
23473;BME280;11909;52.516;13.564;2023-04-24T01:44:28;99612.53;;;11.10;99.10
23473;BME280;11909;52.516;13.564;2023-04-24T01:46:56;99609.78;;;11.10;100.00
23473;BME280;11909;52.516;13.564;2023-04-24T01:49:24;99610.69;;;11.05;100.00
23473;BME280;11909;52.516;13.564;2023-04-24T01:51:52;99608.16;;;11.09;99.28
23473;BME280;11909;52.516;13.564;2023-04-24T01:54:21;99601.53;;;11.10;99.47
23473;BME280;11909;52.516;13.564;2023-04-24T01:56:50;99597.66;;;11.11;99.11
23473;BME280;11909;52.516;13.564;2023-04-24T01:59:20;99598.31;;;11.08;99.45
23473;BME280;11909;52.516;13.564;2023-04-24T02:01:48;99592.94;;;11.03;99.61
23473;BME280;11909;52.516;13.564;2023-04-24T02:04:16;99593.88;;;10.98;100.00
23473;BME280;11909;52.516;13.564;2023-04-24T02:06:44;99591.31;;;11.02;100.00
23473;BME280;11909;52.516;13.564;2023-04-24T02:09:12;99592.59;;;11.04;100.00
23473;BME280;11909;52.516;13.564;2023-04-24T02:11:40;99585.19;;;11.05;99.74
23473;BME280;11909;52.516;13.564;2023-04-24T02:14:09;99589.88;;;11.04;99.25
23473;BME280;11909;52.516;13.564;2023-04-24T02:16:37;99594.38;;;11.00;99.53
23473;BME280;11909;52.516;13.564;2023-04-24T02:19:05;99588.38;;;10.98;99.72
23473;BME280;11909;52.516;13.564;2023-04-24T02:21:33;99579.16;;;10.94;100.00
23473;BME280;11909;52.516;13.564;2023-04-24T02:24:01;99576.69;;;10.93;100.00
23473;BME280;11909;52.516;13.564;2023-04-24T02:26:29;99581.41;;;10.92;100.00
23473;BME280;11909;52.516;13.564;2023-04-24T02:28:58;99583.50;;;10.95;100.00
23473;BME280;11909;52.516;13.564;2023-04-24T02:31:27;99576.28;;;10.99;100.00
23473;BME280;11909;52.516;13.564;2023-04-24T02:33:55;99567.66;;;10.92;100.00
23473;BME280;11909;52.516;13.564;2023-04-24T02:36:23;99566.53;;;10.93;100.00
23473;BME280;11909;52.516;13.564;2023-04-24T02:38:51;99572.34;;;10.92;100.00
23473;BME280;11909;52.516;13.564;2023-04-24T02:41:19;99578.78;;;10.87;100.00
23473;BME280;11909;52.516;13.564;2023-04-24T02:43:47;99573.28;;;10.87;100.00
23473;BME280;11909;52.516;13.564;2023-04-24T02:46:15;99567.59;;;10.83;100.00
23473;BME280;11909;52.516;13.564;2023-04-24T02:48:44;99577.66;;;10.88;100.00
23473;BME280;11909;52.516;13.564;2023-04-24T02:51:12;99578.94;;;10.90;100.00
23473;BME280;11909;52.516;13.564;2023-04-24T02:53:40;99572.78;;;10.85;100.00
23473;BME280;11909;52.516;13.564;2023-04-24T02:56:08;99564.66;;;10.80;100.00
23473;BME280;11909;52.516;13.564;2023-04-24T02:58:38;99567.59;;;10.83;100.00
23473;BME280;11909;52.516;13.564;2023-04-24T03:01:06;99569.03;;;10.81;100.00
23473;BME280;11909;52.516;13.564;2023-04-24T03:03:36;99570.97;;;10.80;100.00
23473;BME280;11909;52.516;13.564;2023-04-24T03:06:06;99568.72;;;10.82;100.00
23473;BME280;11909;52.516;13.564;2023-04-24T03:08:34;99565.34;;;10.85;100.00
23473;BME280;11909;52.516;13.564;2023-04-24T03:11:02;99564.84;;;10.83;100.00
23473;BME280;11909;52.516;13.564;2023-04-24T03:13:30;99567.31;;;10.85;100.00
23473;BME280;11909;52.516;13.564;2023-04-24T03:15:58;99569.22;;;10.84;100.00
23473;BME280;11909;52.516;13.564;2023-04-24T03:18:26;99566.78;;;10.83;100.00
23473;BME280;11909;52.516;13.564;2023-04-24T03:20:53;99573.38;;;10.82;100.00
23473;BME280;11909;52.516;13.564;2023-04-24T03:23:23;99568.78;;;10.91;100.00
23473;BME280;11909;52.516;13.564;2023-04-24T03:25:51;99569.91;;;10.90;100.00
23473;BME280;11909;52.516;13.564;2023-04-24T03:28:18;99574.44;;;10.95;100.00
23473;BME280;11909;52.516;13.564;2023-04-24T03:30:46;99580.97;;;10.99;100.00
23473;BME280;11909;52.516;13.564;2023-04-24T03:33:14;99572.84;;;10.94;100.00
23473;BME280;11909;52.516;13.564;2023-04-24T03:35:42;99566.75;;;10.97;100.00
23473;BME280;11909;52.516;13.564;2023-04-24T03:38:10;99566.91;;;11.00;100.00
23473;BME280;11909;52.516;13.564;2023-04-24T03:40:39;99574.34;;;11.00;100.00
23473;BME280;11909;52.516;13.564;2023-04-24T03:43:07;99570.47;;;11.01;100.00
23473;BME280;11909;52.516;13.564;2023-04-24T03:45:35;99580.34;;;11.02;100.00
23473;BME280;11909;52.516;13.564;2023-04-24T03:48:03;99564.50;;;10.99;100.00
23473;BME280;11909;52.516;13.564;2023-04-24T03:50:31;99572.41;;;11.00;100.00
23473;BME280;11909;52.516;13.564;2023-04-24T03:52:59;99573.22;;;11.01;100.00
23473;BME280;11909;52.516;13.564;2023-04-24T03:55:27;99579.22;;;11.03;100.00
23473;BME280;11909;52.516;13.564;2023-04-24T03:57:56;99580.34;;;11.02;100.00
23473;BME280;11909;52.516;13.564;2023-04-24T04:00:24;99585.00;;;11.01;100.00
23473;BME280;11909;52.516;13.564;2023-04-24T04:02:52;99584.69;;;11.03;100.00
23473;BME280;11909;52.516;13.564;2023-04-24T04:05:20;99580.41;;;11.11;100.00
23473;BME280;11909;52.516;13.564;2023-04-24T04:07:48;99579.09;;;11.08;100.00
23473;BME280;11909;52.516;13.564;2023-04-24T04:10:16;99575.00;;;11.05;100.00
23473;BME280;11909;52.516;13.564;2023-04-24T04:12:45;99574.84;;;11.02;100.00
23473;BME280;11909;52.516;13.564;2023-04-24T04:15:14;99575.28;;;10.95;100.00
23473;BME280;11909;52.516;13.564;2023-04-24T04:17:42;99565.91;;;10.96;100.00
23473;BME280;11909;52.516;13.564;2023-04-24T04:20:10;99560.91;;;10.98;100.00
23473;BME280;11909;52.516;13.564;2023-04-24T04:22:38;99568.16;;;11.17;100.00
23473;BME280;11909;52.516;13.564;2023-04-24T04:25:10;99572.09;;;11.25;100.00
23473;BME280;11909;52.516;13.564;2023-04-24T04:27:40;99566.84;;;11.14;100.00
23473;BME280;11909;52.516;13.564;2023-04-24T04:30:09;99562.16;;;11.15;100.00
23473;BME280;11909;52.516;13.564;2023-04-24T04:32:38;99569.91;;;11.13;100.00
23473;BME280;11909;52.516;13.564;2023-04-24T04:35:06;99566.66;;;11.11;100.00
23473;BME280;11909;52.516;13.564;2023-04-24T04:37:34;99567.66;;;11.15;100.00
23473;BME280;11909;52.516;13.564;2023-04-24T04:40:02;99562.66;;;11.17;100.00
23473;BME280;11909;52.516;13.564;2023-04-24T04:42:33;99575.75;;;11.20;100.00
23473;BME280;11909;52.516;13.564;2023-04-24T04:45:01;99573.72;;;11.26;100.00
23473;BME280;11909;52.516;13.564;2023-04-24T04:47:29;99562.72;;;11.26;100.00
23473;BME280;11909;52.516;13.564;2023-04-24T04:49:59;99580.19;;;11.30;100.00
23473;BME280;11909;52.516;13.564;2023-04-24T04:52:27;99583.63;;;11.36;100.00
23473;BME280;11909;52.516;13.564;2023-04-24T04:54:55;99594.78;;;11.39;100.00
23473;BME280;11909;52.516;13.564;2023-04-24T04:57:23;99596.59;;;11.44;100.00
23473;BME280;11909;52.516;13.564;2023-04-24T04:59:51;99594.19;;;11.51;100.00
23473;BME280;11909;52.516;13.564;2023-04-24T05:02:19;99596.00;;;11.56;100.00
23473;BME280;11909;52.516;13.564;2023-04-24T05:04:47;99608.22;;;11.72;100.00
23473;BME280;11909;52.516;13.564;2023-04-24T05:07:17;99602.88;;;11.76;100.00
23473;BME280;11909;52.516;13.564;2023-04-24T05:09:44;99600.97;;;11.76;100.00
23473;BME280;11909;52.516;13.564;2023-04-24T05:12:12;99598.41;;;11.80;100.00
23473;BME280;11909;52.516;13.564;2023-04-24T05:14:40;99596.09;;;11.73;100.00
23473;BME280;11909;52.516;13.564;2023-04-24T05:17:09;99597.25;;;11.81;99.83
23473;BME280;11909;52.516;13.564;2023-04-24T05:19:37;99605.84;;;11.88;99.45
23473;BME280;11909;52.516;13.564;2023-04-24T05:22:06;99602.97;;;11.94;98.91
23473;BME280;11909;52.516;13.564;2023-04-24T05:24:35;99610.31;;;12.07;98.25
23473;BME280;11909;52.516;13.564;2023-04-24T05:27:03;99612.59;;;12.05;97.86
23473;BME280;11909;52.516;13.564;2023-04-24T05:29:32;99594.78;;;12.02;97.95
23473;BME280;11909;52.516;13.564;2023-04-24T05:32:00;99603.22;;;12.06;97.55
23473;BME280;11909;52.516;13.564;2023-04-24T05:34:28;99604.72;;;12.21;96.35
23473;BME280;11909;52.516;13.564;2023-04-24T05:36:56;99612.78;;;12.17;95.88
23473;BME280;11909;52.516;13.564;2023-04-24T05:39:24;99613.75;;;12.22;95.40
23473;BME280;11909;52.516;13.564;2023-04-24T05:41:54;99618.59;;;12.16;94.77
23473;BME280;11909;52.516;13.564;2023-04-24T05:44:24;99612.28;;;12.15;95.18
23473;BME280;11909;52.516;13.564;2023-04-24T05:46:52;99621.38;;;12.25;94.02
23473;BME280;11909;52.516;13.564;2023-04-24T05:49:22;99616.34;;;12.18;95.20
23473;BME280;11909;52.516;13.564;2023-04-24T05:51:50;99614.56;;;12.22;94.96
23473;BME280;11909;52.516;13.564;2023-04-24T05:54:18;99625.13;;;12.29;94.29
23473;BME280;11909;52.516;13.564;2023-04-24T05:56:45;99618.47;;;12.30;93.69
23473;BME280;11909;52.516;13.564;2023-04-24T05:59:14;99618.97;;;12.32;93.53
23473;BME280;11909;52.516;13.564;2023-04-24T06:01:43;99613.13;;;12.25;93.92
23473;BME280;11909;52.516;13.564;2023-04-24T06:04:12;99630.66;;;12.38;92.64
23473;BME280;11909;52.516;13.564;2023-04-24T06:06:41;99632.56;;;12.37;92.85
23473;BME280;11909;52.516;13.564;2023-04-24T06:09:09;99638.25;;;12.41;92.15
23473;BME280;11909;52.516;13.564;2023-04-24T06:11:37;99642.91;;;12.31;93.05
23473;BME280;11909;52.516;13.564;2023-04-24T06:14:04;99639.88;;;12.42;91.93
23473;BME280;11909;52.516;13.564;2023-04-24T06:16:34;99646.66;;;12.44;91.87
23473;BME280;11909;52.516;13.564;2023-04-24T06:19:02;99647.94;;;12.38;91.71
23473;BME280;11909;52.516;13.564;2023-04-24T06:21:30;99640.22;;;12.49;91.67
23473;BME280;11909;52.516;13.564;2023-04-24T06:23:57;99638.59;;;12.48;91.55
23473;BME280;11909;52.516;13.564;2023-04-24T06:26:25;99641.34;;;12.57;90.25
23473;BME280;11909;52.516;13.564;2023-04-24T06:28:53;99648.47;;;12.58;89.71
23473;BME280;11909;52.516;13.564;2023-04-24T06:31:21;99653.19;;;12.66;89.23
23473;BME280;11909;52.516;13.564;2023-04-24T06:33:50;99647.38;;;12.68;88.37
23473;BME280;11909;52.516;13.564;2023-04-24T06:36:18;99651.41;;;12.61;88.93
23473;BME280;11909;52.516;13.564;2023-04-24T06:38:46;99649.28;;;12.67;88.26
23473;BME280;11909;52.516;13.564;2023-04-24T06:41:14;99648.81;;;12.65;87.93
23473;BME280;11909;52.516;13.564;2023-04-24T06:43:42;99644.94;;;12.75;87.67
23473;BME280;11909;52.516;13.564;2023-04-24T06:46:10;99667.13;;;12.79;85.91
23473;BME280;11909;52.516;13.564;2023-04-24T06:48:38;99666.19;;;12.83;85.72
23473;BME280;11909;52.516;13.564;2023-04-24T06:51:08;99668.78;;;12.97;85.45
23473;BME280;11909;52.516;13.564;2023-04-24T06:53:36;99664.72;;;13.03;85.08
23473;BME280;11909;52.516;13.564;2023-04-24T06:56:04;99666.53;;;13.17;83.18
23473;BME280;11909;52.516;13.564;2023-04-24T06:58:32;99669.59;;;13.15;83.09
23473;BME280;11909;52.516;13.564;2023-04-24T07:01:00;99661.81;;;13.09;82.20
23473;BME280;11909;52.516;13.564;2023-04-24T07:03:29;99656.94;;;13.14;81.85
23473;BME280;11909;52.516;13.564;2023-04-24T07:05:57;99658.88;;;13.31;81.54
23473;BME280;11909;52.516;13.564;2023-04-24T07:08:26;99644.63;;;13.29;80.51
23473;BME280;11909;52.516;13.564;2023-04-24T07:10:55;99650.31;;;13.33;81.63
23473;BME280;11909;52.516;13.564;2023-04-24T07:13:23;99660.69;;;13.54;78.49
23473;BME280;11909;52.516;13.564;2023-04-24T07:15:51;99663.75;;;13.52;79.01
23473;BME280;11909;52.516;13.564;2023-04-24T07:18:20;99670.56;;;13.64;76.88
23473;BME280;11909;52.516;13.564;2023-04-24T07:20:48;99663.44;;;13.62;76.20
23473;BME280;11909;52.516;13.564;2023-04-24T07:23:17;99661.94;;;13.65;77.08
23473;BME280;11909;52.516;13.564;2023-04-24T07:25:46;99661.28;;;13.68;75.49
23473;BME280;11909;52.516;13.564;2023-04-24T07:28:14;99666.63;;;13.73;76.68
23473;BME280;11909;52.516;13.564;2023-04-24T07:30:44;99673.56;;;13.88;75.08
23473;BME280;11909;52.516;13.564;2023-04-24T07:33:11;99676.31;;;13.97;74.22
23473;BME280;11909;52.516;13.564;2023-04-24T07:35:40;99680.66;;;14.07;73.82
23473;BME280;11909;52.516;13.564;2023-04-24T07:38:07;99685.81;;;14.09;71.42
23473;BME280;11909;52.516;13.564;2023-04-24T07:40:35;99690.84;;;14.15;70.87
23473;BME280;11909;52.516;13.564;2023-04-24T07:43:04;99689.34;;;14.18;70.68
23473;BME280;11909;52.516;13.564;2023-04-24T07:45:32;99680.94;;;14.14;71.82
23473;BME280;11909;52.516;13.564;2023-04-24T07:48:03;99684.78;;;14.31;70.88
23473;BME280;11909;52.516;13.564;2023-04-24T07:50:31;99682.16;;;14.34;69.63
23473;BME280;11909;52.516;13.564;2023-04-24T07:52:59;99679.78;;;14.24;70.72
23473;BME280;11909;52.516;13.564;2023-04-24T07:55:27;99677.28;;;14.31;71.06
23473;BME280;11909;52.516;13.564;2023-04-24T07:57:55;99681.31;;;14.43;69.07
23473;BME280;11909;52.516;13.564;2023-04-24T08:00:25;99675.94;;;14.38;70.44
23473;BME280;11909;52.516;13.564;2023-04-24T08:02:52;99681.13;;;14.48;69.08
23473;BME280;11909;52.516;13.564;2023-04-24T08:05:20;99680.59;;;14.55;68.27
23473;BME280;11909;52.516;13.564;2023-04-24T08:07:49;99681.19;;;14.60;66.25
23473;BME280;11909;52.516;13.564;2023-04-24T08:10:16;99673.59;;;14.57;66.39
23473;BME280;11909;52.516;13.564;2023-04-24T08:12:45;99689.94;;;14.62;66.09
23473;BME280;11909;52.516;13.564;2023-04-24T08:15:12;99685.53;;;14.70;64.91
23473;BME280;11909;52.516;13.564;2023-04-24T08:17:41;99683.78;;;14.66;63.90
23473;BME280;11909;52.516;13.564;2023-04-24T08:20:10;99692.84;;;14.75;64.10
23473;BME280;11909;52.516;13.564;2023-04-24T08:22:40;99689.09;;;14.80;65.04
23473;BME280;11909;52.516;13.564;2023-04-24T08:25:10;99688.78;;;14.72;67.26
23473;BME280;11909;52.516;13.564;2023-04-24T08:27:38;99676.59;;;14.73;68.32
23473;BME280;11909;52.516;13.564;2023-04-24T08:30:07;99684.16;;;14.85;68.13
23473;BME280;11909;52.516;13.564;2023-04-24T08:32:36;99680.19;;;14.95;67.61
23473;BME280;11909;52.516;13.564;2023-04-24T08:35:06;99675.22;;;15.10;67.93
23473;BME280;11909;52.516;13.564;2023-04-24T08:37:35;99689.28;;;15.17;66.22
23473;BME280;11909;52.516;13.564;2023-04-24T08:40:08;99669.81;;;15.13;66.51
23473;BME280;11909;52.516;13.564;2023-04-24T08:42:39;99670.34;;;15.28;66.25
23473;BME280;11909;52.516;13.564;2023-04-24T08:45:08;99672.09;;;15.32;66.25
23473;BME280;11909;52.516;13.564;2023-04-24T08:47:37;99673.38;;;15.35;65.13
23473;BME280;11909;52.516;13.564;2023-04-24T08:50:08;99671.97;;;15.62;65.46
23473;BME280;11909;52.516;13.564;2023-04-24T08:52:36;99682.25;;;15.74;63.04
23473;BME280;11909;52.516;13.564;2023-04-24T08:55:05;99686.69;;;15.88;62.44
23473;BME280;11909;52.516;13.564;2023-04-24T08:57:33;99687.56;;;15.80;61.85
23473;BME280;11909;52.516;13.564;2023-04-24T09:00:02;99684.56;;;15.72;62.89
23473;BME280;11909;52.516;13.564;2023-04-24T09:02:31;99679.78;;;15.94;61.86
23473;BME280;11909;52.516;13.564;2023-04-24T09:05:02;99681.53;;;16.11;61.82
23473;BME280;11909;52.516;13.564;2023-04-24T09:07:33;99688.31;;;16.01;60.08
23473;BME280;11909;52.516;13.564;2023-04-24T09:10:03;99687.06;;;15.99;61.51
23473;BME280;11909;52.516;13.564;2023-04-24T09:12:32;99690.53;;;16.08;61.18
23473;BME280;11909;52.516;13.564;2023-04-24T09:15:00;99688.34;;;16.14;58.36
23473;BME280;11909;52.516;13.564;2023-04-24T09:17:28;99695.16;;;16.04;57.60
23473;BME280;11909;52.516;13.564;2023-04-24T09:19:56;99695.59;;;16.06;57.48
23473;BME280;11909;52.516;13.564;2023-04-24T09:22:24;99705.19;;;16.09;57.01
23473;BME280;11909;52.516;13.564;2023-04-24T09:25:02;99699.88;;;16.03;56.84
23473;BME280;11909;52.516;13.564;2023-04-24T09:27:30;99699.22;;;15.85;58.15
23473;BME280;11909;52.516;13.564;2023-04-24T09:29:59;99708.34;;;15.86;58.22
23473;BME280;11909;52.516;13.564;2023-04-24T09:32:27;99711.09;;;15.86;57.57
23473;BME280;11909;52.516;13.564;2023-04-24T09:35:08;99696.69;;;15.80;58.22
23473;BME280;11909;52.516;13.564;2023-04-24T09:37:37;99699.53;;;15.71;57.70
23473;BME280;11909;52.516;13.564;2023-04-24T09:40:15;99695.22;;;15.61;57.73
23473;BME280;11909;52.516;13.564;2023-04-24T09:42:44;99702.47;;;15.54;59.04
23473;BME280;11909;52.516;13.564;2023-04-24T09:45:13;99699.06;;;15.69;58.58
23473;BME280;11909;52.516;13.564;2023-04-24T09:47:42;99697.16;;;15.82;58.90
23473;BME280;11909;52.516;13.564;2023-04-24T09:50:14;99708.91;;;15.79;59.76
23473;BME280;11909;52.516;13.564;2023-04-24T09:52:44;99693.47;;;15.57;60.40
23473;BME280;11909;52.516;13.564;2023-04-24T09:55:17;99710.38;;;15.43;61.35
23473;BME280;11909;52.516;13.564;2023-04-24T09:57:49;99691.31;;;15.29;62.12
23473;BME280;11909;52.516;13.564;2023-04-24T10:00:19;99698.72;;;15.37;63.22
23473;BME280;11909;52.516;13.564;2023-04-24T10:02:57;99690.22;;;15.42;63.86
23473;BME280;11909;52.516;13.564;2023-04-24T10:05:28;99682.78;;;15.55;64.08
23473;BME280;11909;52.516;13.564;2023-04-24T10:07:57;99679.25;;;15.67;64.17
23473;BME280;11909;52.516;13.564;2023-04-24T10:10:27;99682.34;;;15.66;64.16
23473;BME280;11909;52.516;13.564;2023-04-24T10:12:56;99679.19;;;15.55;64.77
23473;BME280;11909;52.516;13.564;2023-04-24T10:15:26;99676.47;;;15.67;64.61
23473;BME280;11909;52.516;13.564;2023-04-24T10:17:53;99694.13;;;15.75;62.55
23473;BME280;11909;52.516;13.564;2023-04-24T10:20:23;99680.41;;;15.66;62.51
23473;BME280;11909;52.516;13.564;2023-04-24T10:22:52;99695.84;;;15.67;61.40
23473;BME280;11909;52.516;13.564;2023-04-24T10:25:22;99692.84;;;15.72;61.41
23473;BME280;11909;52.516;13.564;2023-04-24T10:27:53;99691.53;;;15.57;61.76
23473;BME280;11909;52.516;13.564;2023-04-24T10:30:23;99698.94;;;15.66;60.75
23473;BME280;11909;52.516;13.564;2023-04-24T10:32:52;99705.50;;;15.61;59.89
23473;BME280;11909;52.516;13.564;2023-04-24T10:35:20;99701.59;;;15.62;60.31
23473;BME280;11909;52.516;13.564;2023-04-24T10:37:54;99695.44;;;15.56;60.67
23473;BME280;11909;52.516;13.564;2023-04-24T10:40:26;99693.22;;;15.71;61.31
23473;BME280;11909;52.516;13.564;2023-04-24T10:42:55;99683.56;;;15.89;60.98
23473;BME280;11909;52.516;13.564;2023-04-24T10:45:24;99688.59;;;16.33;60.01
23473;BME280;11909;52.516;13.564;2023-04-24T10:47:56;99694.25;;;16.49;58.52
23473;BME280;11909;52.516;13.564;2023-04-24T10:50:26;99691.72;;;16.44;58.71
23473;BME280;11909;52.516;13.564;2023-04-24T10:53:05;99691.47;;;16.37;58.24
23473;BME280;11909;52.516;13.564;2023-04-24T10:55:41;99686.06;;;16.28;59.22
23473;BME280;11909;52.516;13.564;2023-04-24T10:58:11;99683.63;;;16.14;59.96
23473;BME280;11909;52.516;13.564;2023-04-24T11:00:40;99675.69;;;16.13;59.76
23473;BME280;11909;52.516;13.564;2023-04-24T11:03:23;99684.56;;;16.18;60.36
23473;BME280;11909;52.516;13.564;2023-04-24T11:05:55;99689.88;;;16.36;58.50
23473;BME280;11909;52.516;13.564;2023-04-24T11:08:28;99675.66;;;16.25;58.97
23473;BME280;11909;52.516;13.564;2023-04-24T11:10:59;99678.66;;;16.20;59.97
23473;BME280;11909;52.516;13.564;2023-04-24T11:14:03;99669.53;;;16.07;60.63
23473;BME280;11909;52.516;13.564;2023-04-24T11:16:35;99662.28;;;16.15;60.06
23473;BME280;11909;52.516;13.564;2023-04-24T11:19:06;99663.78;;;16.12;59.41
23473;BME280;11909;52.516;13.564;2023-04-24T11:21:42;99669.78;;;16.52;58.82
23473;BME280;11909;52.516;13.564;2023-04-24T11:24:48;99664.94;;;16.73;58.94
23473;BME280;11909;52.516;13.564;2023-04-24T11:27:19;99665.34;;;17.00;57.57
23473;BME280;11909;52.516;13.564;2023-04-24T11:29:49;99677.59;;;16.99;57.30
23473;BME280;11909;52.516;13.564;2023-04-24T11:32:19;99670.22;;;16.91;56.86
23473;BME280;11909;52.516;13.564;2023-04-24T11:34:48;99673.81;;;16.79;57.29
23473;BME280;11909;52.516;13.564;2023-04-24T11:37:16;99663.31;;;16.72;58.73
23473;BME280;11909;52.516;13.564;2023-04-24T11:39:44;99678.53;;;16.78;56.84
23473;BME280;11909;52.516;13.564;2023-04-24T11:42:15;99685.00;;;16.58;57.14
23473;BME280;11909;52.516;13.564;2023-04-24T11:44:43;99687.69;;;16.54;58.76
23473;BME280;11909;52.516;13.564;2023-04-24T11:47:13;99709.84;;;16.29;63.76
23473;BME280;11909;52.516;13.564;2023-04-24T11:49:40;99689.88;;;15.44;74.06
23473;BME280;11909;52.516;13.564;2023-04-24T11:52:08;99680.19;;;14.95;79.82
23473;BME280;11909;52.516;13.564;2023-04-24T11:54:37;99676.34;;;14.87;82.14
23473;BME280;11909;52.516;13.564;2023-04-24T11:57:05;99669.47;;;14.63;84.39
23473;BME280;11909;52.516;13.564;2023-04-24T11:59:36;99663.44;;;14.70;84.19
23473;BME280;11909;52.516;13.564;2023-04-24T12:02:05;99656.25;;;14.78;83.83
23473;BME280;11909;52.516;13.564;2023-04-24T12:04:40;99667.50;;;14.73;79.78
23473;BME280;11909;52.516;13.564;2023-04-24T12:07:09;99656.34;;;14.90;80.87
23473;BME280;11909;52.516;13.564;2023-04-24T12:09:40;99657.81;;;15.30;78.69
23473;BME280;11909;52.516;13.564;2023-04-24T12:12:09;99656.91;;;15.39;75.37
23473;BME280;11909;52.516;13.564;2023-04-24T12:14:43;99661.16;;;15.70;71.73
23473;BME280;11909;52.516;13.564;2023-04-24T12:17:11;99658.13;;;15.96;72.47
23473;BME280;11909;52.516;13.564;2023-04-24T12:19:46;99658.03;;;16.05;71.76
23473;BME280;11909;52.516;13.564;2023-04-24T12:22:15;99658.34;;;15.91;70.85
23473;BME280;11909;52.516;13.564;2023-04-24T12:24:59;99649.13;;;16.24;71.49
23473;BME280;11909;52.516;13.564;2023-04-24T12:27:31;99651.34;;;16.31;70.83
23473;BME280;11909;52.516;13.564;2023-04-24T12:30:02;99652.16;;;16.56;68.46
23473;BME280;11909;52.516;13.564;2023-04-24T12:32:31;99655.50;;;16.62;67.28
23473;BME280;11909;52.516;13.564;2023-04-24T12:35:00;99648.16;;;16.82;65.81
23473;BME280;11909;52.516;13.564;2023-04-24T12:37:33;99659.69;;;16.97;63.61
23473;BME280;11909;52.516;13.564;2023-04-24T12:40:04;99665.34;;;17.13;58.28
23473;BME280;11909;52.516;13.564;2023-04-24T12:42:35;99652.81;;;17.19;59.05
23473;BME280;11909;52.516;13.564;2023-04-24T12:45:04;99653.34;;;17.09;58.00
23473;BME280;11909;52.516;13.564;2023-04-24T12:47:34;99653.34;;;17.09;60.12
23473;BME280;11909;52.516;13.564;2023-04-24T12:50:05;99656.00;;;17.05;57.19
23473;BME280;11909;52.516;13.564;2023-04-24T12:52:33;99662.09;;;17.11;55.18
23473;BME280;11909;52.516;13.564;2023-04-24T12:55:01;99658.66;;;17.01;53.62
23473;BME280;11909;52.516;13.564;2023-04-24T12:57:30;99669.16;;;17.08;50.81